Time;durP1;ratioP1;P1;durP2;ratioP2;P2;SDS_P1;SDS_P2;PMS_P1;PMS_P2;Temp;Humidity;BMP_temperature;BMP_pressure;BME280_temperature;BME280_humidity;BME280_pressure;Samples;Min_cycle;Max_cycle;Signal;HPM_P1;HPM_P2
2023/12/10 00:01:05;;;;;;;18.48;3.92;;;8.20;99.90;;;;;;5062739;28;20048;-81
2023/12/10 00:03:30;;;;;;;30.75;4.55;;;8.10;99.90;;;;;;5054375;28;20071;-81
2023/12/10 00:05:56;;;;;;;32.25;4.40;;;8.10;99.90;;;;;;5054208;28;20044;-78
2023/12/10 00:08:21;;;;;;;17.92;3.30;;;8.10;99.90;;;;;;5060486;28;20480;-80
2023/12/10 00:10:47;;;;;;;24.75;4.07;;;8.10;99.90;;;;;;5068345;28;20143;-81
2023/12/10 00:13:13;;;;;;;24.52;4.30;;;8.00;99.90;;;;;;5056414;28;20052;-80
2023/12/10 00:15:38;;;;;;;16.40;3.33;;;8.00;99.90;;;;;;5053659;28;20377;-81
2023/12/10 00:18:05;;;;;;;20.50;3.53;;;8.00;99.90;;;;;;5059543;28;20500;-79
2023/12/10 00:20:31;;;;;;;24.40;4.28;;;8.00;99.90;;;;;;5063817;28;20047;-81
2023/12/10 00:22:57;;;;;;;27.60;4.05;;;8.00;99.90;;;;;;5055743;28;20040;-81
2023/12/10 00:25:25;;;;;;;29.23;4.32;;;8.00;99.90;;;;;;5069941;28;20480;-80
2023/12/10 00:27:51;;;;;;;32.72;4.15;;;8.10;99.90;;;;;;5059208;28;20048;-78
2023/12/10 00:30:17;;;;;;;28.30;4.68;;;8.10;99.90;;;;;;5058821;28;20052;-81
2023/12/10 00:32:43;;;;;;;22.83;4.22;;;8.10;99.90;;;;;;5060150;28;20928;-81
2023/12/10 00:35:09;;;;;;;20.90;3.65;;;8.10;99.90;;;;;;5061249;28;20144;-81
2023/12/10 00:37:34;;;;;;;24.02;3.85;;;8.10;99.90;;;;;;5062956;28;20055;-81
2023/12/10 00:40:00;;;;;;;21.75;4.38;;;8.10;99.90;;;;;;5057582;28;20129;-81
2023/12/10 00:42:25;;;;;;;23.23;4.45;;;8.30;99.90;;;;;;5062029;28;20521;-82
2023/12/10 00:44:52;;;;;;;22.52;3.35;;;8.10;99.90;;;;;;5058254;28;20103;-80
2023/12/10 00:47:18;;;;;;;27.33;4.85;;;8.10;99.90;;;;;;5059449;28;20049;-80
2023/12/10 00:49:43;;;;;;;24.85;3.95;;;8.10;99.90;;;;;;5058458;28;20348;-81
2023/12/10 00:52:09;;;;;;;20.67;4.03;;;8.20;99.90;;;;;;5068799;28;20048;-81
2023/12/10 00:54:35;;;;;;;29.80;4.38;;;8.20;99.90;;;;;;5065461;28;20072;-81
2023/12/10 00:57:00;;;;;;;25.95;4.68;;;8.20;99.90;;;;;;5065627;28;20037;-81
2023/12/10 00:59:26;;;;;;;24.73;3.97;;;8.20;99.90;;;;;;5057032;28;20048;-81
2023/12/10 01:01:52;;;;;;;26.52;4.25;;;8.20;99.90;;;;;;5057537;28;20041;-81
2023/12/10 01:04:18;;;;;;;22.05;3.53;;;8.20;99.90;;;;;;5050799;28;20562;-81
2023/12/10 01:06:43;;;;;;;22.02;3.95;;;8.40;99.90;;;;;;5060930;28;20040;-81
2023/12/10 01:09:09;;;;;;;24.50;3.70;;;8.20;99.90;;;;;;5065782;28;20127;-81
2023/12/10 01:11:35;;;;;;;16.75;3.05;;;8.20;99.90;;;;;;5055283;28;20075;-80
2023/12/10 01:14:02;;;;;;;20.70;4.47;;;8.20;99.90;;;;;;5057006;28;20095;-80
2023/12/10 01:16:28;;;;;;;20.75;3.90;;;8.10;99.90;;;;;;5056082;28;20060;-81
2023/12/10 01:18:54;;;;;;;21.02;3.15;;;8.10;99.90;;;;;;5050712;28;20053;-81
2023/12/10 01:21:19;;;;;;;18.65;3.63;;;8.10;99.90;;;;;;5055016;28;20114;-82
2023/12/10 01:23:45;;;;;;;16.73;3.28;;;8.10;99.90;;;;;;5052560;28;20449;-81
2023/12/10 01:26:13;;;;;;;16.73;3.13;;;8.00;99.90;;;;;;5070560;28;20449;-81
2023/12/10 01:28:39;;;;;;;21.23;3.67;;;8.10;99.90;;;;;;5052771;28;20131;-82
2023/12/10 01:31:05;;;;;;;17.80;3.50;;;8.00;99.90;;;;;;5075821;28;20473;-81
2023/12/10 01:33:31;;;;;;;18.38;2.85;;;7.90;99.90;;;;;;5058820;28;20427;-80
2023/12/10 01:35:57;;;;;;;20.58;3.30;;;7.90;99.90;;;;;;5066618;28;20071;-81
2023/12/10 01:38:22;;;;;;;21.33;3.90;;;8.00;99.90;;;;;;5050807;28;20055;-80
2023/12/10 01:40:48;;;;;;;21.35;3.08;;;7.90;99.90;;;;;;5068038;28;20041;-80
2023/12/10 01:43:17;;;;;;;16.38;3.35;;;7.90;99.90;;;;;;5060682;28;20045;-80
2023/12/10 01:45:48;;;;;;;23.17;3.58;;;7.90;99.90;;;;;;5064103;28;20111;-80
2023/12/10 01:48:15;;;;;;;26.05;4.00;;;7.80;99.90;;;;;;5043859;28;20135;-81
2023/12/10 01:50:43;;;;;;;19.85;3.03;;;7.80;99.90;;;;;;5052293;28;20563;-80
2023/12/10 01:53:09;;;;;;;24.80;4.20;;;7.80;99.90;;;;;;5054579;28;20485;-81
2023/12/10 01:55:35;;;;;;;21.00;4.28;;;7.80;99.90;;;;;;5055680;28;20136;-80
2023/12/10 01:58:04;;;;;;;22.27;3.03;;;8.00;99.90;;;;;;5060182;28;20388;-79
2023/12/10 02:00:30;;;;;;;21.40;3.92;;;7.70;99.90;;;;;;5068951;28;20052;-81
2023/12/10 02:02:56;;;;;;;26.63;3.92;;;7.80;99.90;;;;;;5056203;28;20045;-80
2023/12/10 02:05:22;;;;;;;21.85;2.83;;;7.80;99.90;;;;;;5056110;28;20052;-80
2023/12/10 02:07:49;;;;;;;18.23;2.85;;;7.70;99.90;;;;;;5056931;28;20121;-80
2023/12/10 02:10:15;;;;;;;21.05;4.03;;;7.70;99.90;;;;;;5057745;28;20068;-81
2023/12/10 02:12:43;;;;;;;25.50;3.72;;;7.70;99.90;;;;;;5051977;28;20051;-81
2023/12/10 02:15:17;;;;;;;29.08;3.55;;;7.70;99.90;;;;;;5068382;28;20153;-81
2023/12/10 02:17:43;;;;;;;28.20;4.22;;;7.70;99.90;;;;;;5065056;28;20057;-80
2023/12/10 02:20:12;;;;;;;21.15;4.57;;;7.70;99.90;;;;;;5062981;28;20057;-81
2023/12/10 02:22:47;;;;;;;21.38;3.67;;;7.70;99.90;;;;;;5052879;28;20539;-78
2023/12/10 02:25:16;;;;;;;18.58;3.40;;;7.70;99.90;;;;;;5052681;28;20496;-80
2023/12/10 02:27:42;;;;;;;19.80;3.13;;;7.80;99.90;;;;;;5053048;28;20052;-80
2023/12/10 02:30:09;;;;;;;28.88;4.20;;;7.70;99.90;;;;;;5060138;28;20049;-81
2023/12/10 02:32:35;;;;;;;19.98;3.20;;;7.70;99.90;;;;;;5059005;28;20045;-79
2023/12/10 02:35:00;;;;;;;20.30;3.45;;;7.60;99.90;;;;;;5053791;28;20083;-81
2023/12/10 02:37:26;;;;;;;22.33;3.38;;;7.70;99.90;;;;;;5057194;28;20439;-81
2023/12/10 02:39:52;;;;;;;31.02;4.55;;;7.60;99.90;;;;;;5043876;28;20388;-80
2023/12/10 02:42:17;;;;;;;23.33;3.35;;;7.60;99.90;;;;;;5053189;28;20052;-81
2023/12/10 02:44:43;;;;;;;25.15;4.25;;;7.60;99.90;;;;;;5053621;28;20036;-79
2023/12/10 02:47:08;;;;;;;20.73;3.80;;;7.60;99.90;;;;;;5063291;28;20072;-80
2023/12/10 02:49:34;;;;;;;25.15;4.18;;;7.70;99.90;;;;;;5054216;28;20055;-81
2023/12/10 02:52:00;;;;;;;34.50;4.38;;;7.70;99.90;;;;;;5061759;28;20048;-80
2023/12/10 02:54:26;;;;;;;20.23;3.65;;;7.60;99.90;;;;;;5064724;28;20537;-81
2023/12/10 02:56:51;;;;;;;24.90;3.42;;;7.60;99.90;;;;;;5057907;28;20050;-79
2023/12/10 02:59:17;;;;;;;22.05;3.97;;;7.70;99.90;;;;;;5049734;28;20033;-81
2023/12/10 03:01:43;;;;;;;22.92;3.63;;;7.60;99.90;;;;;;5053108;28;20374;-81
2023/12/10 03:04:08;;;;;;;16.75;3.17;;;7.70;99.90;;;;;;5060519;28;20049;-80
2023/12/10 03:06:34;;;;;;;25.58;3.60;;;7.60;99.90;;;;;;5050112;28;20081;-80
2023/12/10 03:08:59;;;;;;;27.23;3.45;;;7.60;99.90;;;;;;5064894;28;20479;-80
2023/12/10 03:11:25;;;;;;;28.23;3.30;;;7.60;99.90;;;;;;5066915;28;20047;-81
2023/12/10 03:13:50;;;;;;;14.98;3.53;;;7.70;99.90;;;;;;5057003;28;20045;-81
2023/12/10 03:16:16;;;;;;;25.67;3.78;;;7.70;99.90;;;;;;5053421;28;20507;-80
2023/12/10 03:18:42;;;;;;;25.35;3.38;;;7.60;99.90;;;;;;5054384;28;20057;-80
2023/12/10 03:21:07;;;;;;;18.20;3.50;;;7.60;99.90;;;;;;5062117;28;20057;-79
2023/12/10 03:23:33;;;;;;;20.42;2.97;;;7.70;99.90;;;;;;5066477;28;20094;-80
2023/12/10 03:25:58;;;;;;;20.15;3.10;;;7.60;99.90;;;;;;5064765;28;20040;-80
2023/12/10 03:28:24;;;;;;;19.83;3.40;;;7.60;99.90;;;;;;5064487;28;20088;-80
2023/12/10 03:30:49;;;;;;;15.43;3.05;;;7.60;99.90;;;;;;5060910;28;20048;-80
2023/12/10 03:33:15;;;;;;;17.83;3.13;;;7.70;99.90;;;;;;5065432;28;20500;-80
2023/12/10 03:35:41;;;;;;;14.85;2.63;;;7.60;99.90;;;;;;5058227;28;20052;-80
2023/12/10 03:38:06;;;;;;;15.07;3.17;;;7.70;99.90;;;;;;5066197;28;20044;-81
2023/12/10 03:40:32;;;;;;;15.98;2.53;;;7.60;99.90;;;;;;5053857;28;20386;-80
2023/12/10 03:42:58;;;;;;;19.48;2.45;;;7.60;99.90;;;;;;5052981;28;20087;-81
2023/12/10 03:45:23;;;;;;;17.00;2.55;;;7.70;99.90;;;;;;5052958;28;20060;-80
2023/12/10 03:47:49;;;;;;;23.85;2.92;;;7.60;99.90;;;;;;5061530;28;20346;-81
2023/12/10 03:50:16;;;;;;;15.07;2.65;;;7.60;99.90;;;;;;5058621;28;20060;-80
2023/12/10 03:52:41;;;;;;;21.38;2.53;;;7.60;99.90;;;;;;5065778;28;20064;-79
2023/12/10 03:55:08;;;;;;;14.93;3.05;;;7.60;99.90;;;;;;5051841;28;20110;-81
2023/12/10 03:57:33;;;;;;;12.32;2.22;;;7.60;99.90;;;;;;5064865;28;20040;-79
2023/12/10 04:00:00;;;;;;;11.82;2.40;;;7.60;99.90;;;;;;5059649;28;20060;-80
2023/12/10 04:02:25;;;;;;;12.52;1.92;;;7.70;99.90;;;;;;5058656;28;20504;-79
2023/12/10 04:04:51;;;;;;;10.68;2.05;;;7.60;99.90;;;;;;5061470;28;20047;-78
2023/12/10 04:07:17;;;;;;;15.32;2.72;;;7.70;99.90;;;;;;5063390;28;20052;-81
2023/12/10 04:09:42;;;;;;;9.95;1.65;;;7.60;99.90;;;;;;5061913;28;20040;-79
2023/12/10 04:12:08;;;;;;;11.65;1.60;;;7.60;99.90;;;;;;5066062;28;20048;-80
2023/12/10 04:14:33;;;;;;;11.45;1.48;;;7.50;99.90;;;;;;5066984;28;20044;-80
2023/12/10 04:16:59;;;;;;;10.25;2.17;;;7.60;99.90;;;;;;5052782;28;20127;-80
2023/12/10 04:19:25;;;;;;;6.80;1.30;;;7.60;99.90;;;;;;5054183;28;20059;-81
2023/12/10 04:21:50;;;;;;;6.90;1.17;;;7.60;99.90;;;;;;5056309;28;20160;-80
2023/12/10 04:24:16;;;;;;;12.68;1.58;;;7.80;99.90;;;;;;5054510;28;20353;-81
2023/12/10 04:26:42;;;;;;;7.22;1.27;;;7.60;99.90;;;;;;5071523;28;20041;-80
2023/12/10 04:29:08;;;;;;;8.65;1.65;;;7.70;99.90;;;;;;5070553;28;20046;-81
2023/12/10 04:31:35;;;;;;;12.35;1.52;;;7.90;99.90;;;;;;5059244;28;20997;-80
2023/12/10 04:34:01;;;;;;;8.13;1.42;;;7.60;99.90;;;;;;5058690;28;20543;-80
2023/12/10 04:36:27;;;;;;;13.35;1.75;;;7.70;99.90;;;;;;5052233;28;20128;-81
2023/12/10 04:38:52;;;;;;;11.23;1.75;;;7.70;99.90;;;;;;5069157;28;20392;-80
2023/12/10 04:41:18;;;;;;;10.60;1.75;;;7.60;99.90;;;;;;5067268;28;20056;-80
2023/12/10 04:43:44;;;;;;;8.68;2.20;;;7.80;99.90;;;;;;5071210;28;20052;-80
2023/12/10 04:46:09;;;;;;;9.82;1.77;;;7.70;99.90;;;;;;5067827;28;20049;-80
2023/12/10 04:48:35;;;;;;;11.82;1.60;;;7.70;99.90;;;;;;5063609;28;20127;-80
2023/12/10 04:51:01;;;;;;;8.27;1.60;;;7.70;99.90;;;;;;5059187;28;20447;-79
2023/12/10 04:53:26;;;;;;;10.57;1.50;;;7.70;99.90;;;;;;5061337;28;20537;-80
2023/12/10 04:55:52;;;;;;;10.45;1.83;;;7.70;99.90;;;;;;5079686;28;20120;-80
2023/12/10 04:58:18;;;;;;;8.15;1.45;;;7.70;99.90;;;;;;5068990;28;20056;-80
2023/12/10 05:00:43;;;;;;;7.70;1.52;;;7.70;99.90;;;;;;5069892;28;20106;-80
2023/12/10 05:03:09;;;;;;;7.30;1.58;;;7.70;99.90;;;;;;5056691;28;20185;-80
2023/12/10 05:05:35;;;;;;;11.60;1.67;;;7.70;99.90;;;;;;5070454;28;20048;-80
2023/12/10 05:08:02;;;;;;;10.95;1.45;;;7.70;99.90;;;;;;5056112;28;20111;-80
2023/12/10 05:10:28;;;;;;;10.00;1.30;;;7.70;99.90;;;;;;5058315;28;20045;-81
2023/12/10 05:12:53;;;;;;;10.65;1.48;;;7.70;99.90;;;;;;5067683;28;20048;-80
2023/12/10 05:15:19;;;;;;;6.53;1.48;;;7.80;99.90;;;;;;5059414;28;20059;-80
2023/12/10 05:17:44;;;;;;;10.05;1.60;;;7.90;99.90;;;;;;5057862;28;20063;-82
2023/12/10 05:20:10;;;;;;;11.95;1.83;;;7.80;99.90;;;;;;5071004;28;20056;-78
2023/12/10 05:22:36;;;;;;;12.18;1.60;;;7.80;99.90;;;;;;5046307;28;20479;-81
2023/12/10 05:25:03;;;;;;;12.60;1.55;;;7.80;99.90;;;;;;5070347;28;20045;-79
2023/12/10 05:27:32;;;;;;;9.57;1.67;;;7.80;99.90;;;;;;5070858;28;20099;-81
2023/12/10 05:29:58;;;;;;;10.57;1.45;;;7.80;99.90;;;;;;5046092;28;20036;-81
2023/12/10 05:32:24;;;;;;;13.57;1.88;;;7.80;99.90;;;;;;5066009;28;20472;-79
2023/12/10 05:34:51;;;;;;;10.73;1.65;;;7.90;99.90;;;;;;5055074;28;20041;-81
2023/12/10 05:37:16;;;;;;;14.43;2.28;;;7.80;99.90;;;;;;5050694;28;20060;-80
2023/12/10 05:39:42;;;;;;;13.63;1.80;;;7.90;99.90;;;;;;5066108;28;20040;-80
2023/12/10 05:42:08;;;;;;;12.60;1.70;;;7.90;99.90;;;;;;5053610;28;20053;-81
2023/12/10 05:44:33;;;;;;;12.88;1.98;;;8.00;99.90;;;;;;5068664;28;20083;-81
2023/12/10 05:46:59;;;;;;;11.52;2.13;;;8.10;99.90;;;;;;5060167;28;20074;-81
2023/12/10 05:49:24;;;;;;;8.82;1.58;;;8.00;99.90;;;;;;5059051;28;20127;-80
2023/12/10 05:51:50;;;;;;;12.93;2.28;;;8.10;99.90;;;;;;5063940;28;20454;-81
2023/12/10 05:54:15;;;;;;;10.70;1.75;;;8.00;99.90;;;;;;5057424;28;20049;-82
2023/12/10 05:56:42;;;;;;;8.75;1.52;;;8.10;99.90;;;;;;5060939;28;20037;-79
2023/12/10 05:59:08;;;;;;;9.13;1.83;;;8.30;99.90;;;;;;5057025;28;20068;-82
2023/12/10 06:01:34;;;;;;;8.35;1.30;;;8.00;99.90;;;;;;5051926;28;20041;-80
2023/12/10 06:03:59;;;;;;;8.68;1.40;;;8.00;99.90;;;;;;5058449;28;20471;-81
2023/12/10 06:06:25;;;;;;;9.60;1.25;;;8.00;99.90;;;;;;5053637;28;20431;-82
2023/12/10 06:08:51;;;;;;;8.88;1.42;;;8.00;99.90;;;;;;5060030;28;20044;-83
2023/12/10 06:11:17;;;;;;;9.00;1.00;;;8.00;99.90;;;;;;5051138;28;20049;-82
2023/12/10 06:13:42;;;;;;;4.85;1.17;;;8.00;99.90;;;;;;5058887;28;20075;-80
2023/12/10 06:16:08;;;;;;;6.70;1.30;;;8.00;99.90;;;;;;5066829;28;20059;-81
2023/12/10 06:18:34;;;;;;;6.82;1.17;;;8.00;99.90;;;;;;5059328;28;20052;-82
2023/12/10 06:20:59;;;;;;;3.35;0.93;;;8.00;99.90;;;;;;5066288;28;20432;-81
2023/12/10 06:23:25;;;;;;;3.03;0.75;;;8.00;99.90;;;;;;5057307;28;20098;-81
2023/12/10 06:25:51;;;;;;;8.50;1.05;;;8.10;99.90;;;;;;5063414;28;20068;-81
2023/12/10 06:28:16;;;;;;;4.80;1.35;;;8.00;99.90;;;;;;5056337;28;20049;-82
2023/12/10 06:30:42;;;;;;;4.85;0.63;;;8.00;99.90;;;;;;5063692;28;20102;-82
2023/12/10 06:33:08;;;;;;;5.88;0.90;;;8.00;99.90;;;;;;5057902;28;20144;-82
2023/12/10 06:35:33;;;;;;;10.73;1.20;;;8.10;99.90;;;;;;5059614;28;20446;-82
2023/12/10 06:37:59;;;;;;;7.97;1.20;;;8.00;99.90;;;;;;5043488;28;20108;-83
2023/12/10 06:40:24;;;;;;;9.80;1.10;;;8.00;99.90;;;;;;5060873;28;20051;-82
2023/12/10 06:42:50;;;;;;;6.07;0.85;;;8.00;99.90;;;;;;5056967;28;20405;-83
2023/12/10 06:45:16;;;;;;;8.93;1.25;;;8.10;99.90;;;;;;5054863;28;20128;-82
2023/12/10 06:47:42;;;;;;;4.75;0.98;;;8.10;99.90;;;;;;5057985;28;20102;-79
2023/12/10 06:50:08;;;;;;;8.43;1.45;;;8.10;99.90;;;;;;5064459;28;20190;-82
2023/12/10 06:52:34;;;;;;;6.40;1.10;;;8.10;99.90;;;;;;5058956;28;20992;-81
2023/12/10 06:55:00;;;;;;;11.70;1.30;;;8.10;99.90;;;;;;5062787;28;20139;-82
2023/12/10 06:57:25;;;;;;;8.98;1.33;;;8.10;99.90;;;;;;5061634;28;20052;-82
2023/12/10 06:59:51;;;;;;;9.00;1.30;;;8.30;99.90;;;;;;5061875;28;20076;-80
2023/12/10 07:02:16;;;;;;;9.00;1.35;;;8.10;99.90;;;;;;5058023;28;20106;-82
2023/12/10 07:04:43;;;;;;;10.43;1.42;;;8.10;99.90;;;;;;5066968;28;20041;-81
2023/12/10 07:07:09;;;;;;;9.43;0.88;;;8.20;99.90;;;;;;5065982;28;20516;-82
2023/12/10 07:09:34;;;;;;;7.10;1.20;;;8.10;99.90;;;;;;5066121;28;20044;-82
2023/12/10 07:12:00;;;;;;;4.70;0.70;;;8.10;99.90;;;;;;5065159;28;20043;-82
2023/12/10 07:14:26;;;;;;;4.57;0.80;;;8.10;99.90;;;;;;5061824;28;20064;-82
2023/12/10 07:16:51;;;;;;;6.10;0.63;;;8.10;99.90;;;;;;5059337;28;20505;-79
2023/12/10 07:19:17;;;;;;;7.10;0.77;;;8.10;99.90;;;;;;5067287;28;20400;-83
2023/12/10 07:21:43;;;;;;;3.72;0.45;;;8.10;99.90;;;;;;5068023;28;20044;-83
2023/12/10 07:24:09;;;;;;;6.70;0.80;;;8.10;99.90;;;;;;5060389;28;20496;-83
2023/12/10 07:26:35;;;;;;;4.18;0.73;;;8.10;99.90;;;;;;5061728;28;20041;-82
2023/12/10 07:29:01;;;;;;;3.53;0.90;;;8.10;99.90;;;;;;5061033;28;20049;-81
2023/12/10 07:31:26;;;;;;;3.75;0.50;;;8.10;99.90;;;;;;5061384;28;20067;-83
2023/12/10 07:33:52;;;;;;;3.58;0.50;;;8.10;99.90;;;;;;5061255;28;20400;-83
2023/12/10 07:36:17;;;;;;;4.97;0.55;;;8.10;99.90;;;;;;5057491;28;20539;-85
2023/12/10 07:38:43;;;;;;;4.85;0.77;;;8.10;99.90;;;;;;5054306;28;20060;-82
2023/12/10 07:41:09;;;;;;;3.90;0.70;;;8.10;99.90;;;;;;5060354;28;20048;-82
2023/12/10 07:43:35;;;;;;;5.40;0.77;;;8.00;99.90;;;;;;5061820;28;20037;-83
2023/12/10 07:46:00;;;;;;;8.40;0.95;;;8.10;99.90;;;;;;5053100;28;20116;-84
2023/12/10 07:48:27;;;;;;;5.15;0.60;;;8.10;99.90;;;;;;5064493;28;20404;-82
2023/12/10 07:50:52;;;;;;;6.40;0.90;;;8.10;99.90;;;;;;5069446;28;20045;-83
2023/12/10 07:53:18;;;;;;;7.57;1.17;;;8.10;99.90;;;;;;5072075;28;20056;-85
2023/12/10 07:55:44;;;;;;;6.57;1.10;;;8.10;99.90;;;;;;5064454;28;20697;-84
2023/12/10 07:58:09;;;;;;;11.43;1.60;;;8.10;99.90;;;;;;5068145;28;20054;-83
2023/12/10 08:00:35;;;;;;;7.07;1.05;;;8.10;99.90;;;;;;5062203;28;20476;-83
2023/12/10 08:03:01;;;;;;;13.07;2.85;;;8.10;99.90;;;;;;5068685;28;20044;-82
2023/12/10 08:05:27;;;;;;;13.10;2.00;;;8.10;99.90;;;;;;5060980;28;20048;-84
2023/12/10 08:07:53;;;;;;;14.75;2.55;;;8.10;99.90;;;;;;5065523;28;20103;-84
2023/12/10 08:10:19;;;;;;;14.05;1.30;;;8.10;99.90;;;;;;5067644;28;20136;-84
2023/12/10 08:12:44;;;;;;;8.38;1.65;;;8.10;99.90;;;;;;5053585;28;20122;-84
2023/12/10 08:15:10;;;;;;;5.65;0.90;;;8.10;99.90;;;;;;5053611;28;20045;-84
2023/12/10 08:17:36;;;;;;;8.27;1.17;;;8.10;99.90;;;;;;5067555;28;20057;-84
2023/12/10 08:20:03;;;;;;;10.52;1.40;;;8.20;99.90;;;;;;5058200;28;20087;-84
2023/12/10 08:22:28;;;;;;;9.77;1.73;;;8.10;99.90;;;;;;5052679;28;20060;-84
2023/12/10 08:24:54;;;;;;;12.52;2.83;;;8.10;99.90;;;;;;5067228;28;20049;-85
2023/12/10 08:27:20;;;;;;;14.48;2.35;;;8.10;99.90;;;;;;5052899;28;20193;-85
2023/12/10 08:29:45;;;;;;;11.73;2.00;;;8.10;99.90;;;;;;5053844;28;20049;-84
2023/12/10 08:32:11;;;;;;;18.25;2.65;;;8.10;99.90;;;;;;5052946;28;20044;-85
2023/12/10 08:34:37;;;;;;;13.93;2.47;;;8.00;99.90;;;;;;5063255;28;20048;-86
2023/12/10 08:37:03;;;;;;;14.85;2.25;;;8.30;99.90;;;;;;5068336;28;20068;-86
2023/12/10 08:39:29;;;;;;;13.55;2.20;;;8.10;99.90;;;;;;5057417;28;20114;-86
2023/12/10 08:41:55;;;;;;;18.08;2.40;;;8.10;99.90;;;;;;5048339;28;20397;-86
2023/12/10 08:44:20;;;;;;;16.27;3.05;;;8.60;99.90;;;;;;5058615;28;20056;-86
2023/12/10 08:46:46;;;;;;;16.52;2.38;;;8.20;99.90;;;;;;5065262;28;20041;-86
2023/12/10 08:49:12;;;;;;;11.77;2.30;;;8.10;99.90;;;;;;5067967;28;20036;-87
2023/12/10 08:51:37;;;;;;;21.67;4.10;;;8.10;99.90;;;;;;5061586;28;20115;-86
2023/12/10 08:54:03;;;;;;;15.52;3.38;;;8.10;99.90;;;;;;5045625;28;20507;-88
2023/12/10 08:56:29;;;;;;;24.50;3.17;;;8.10;99.90;;;;;;5055664;28;20051;-87
2023/12/10 08:58:55;;;;;;;17.05;3.22;;;8.10;99.90;;;;;;5064703;28;20053;-87
2023/12/10 09:01:20;;;;;;;14.18;2.47;;;8.10;99.90;;;;;;5051469;28;20041;-87
2023/12/10 09:03:46;;;;;;;21.45;3.00;;;8.10;99.90;;;;;;5063047;28;20045;-85
2023/12/10 09:06:12;;;;;;;19.10;2.95;;;8.10;99.90;;;;;;5069965;28;20170;-85
2023/12/10 09:08:38;;;;;;;20.92;3.50;;;8.20;99.90;;;;;;5055934;28;20059;-86
2023/12/10 09:11:04;;;;;;;27.40;3.47;;;8.20;99.90;;;;;;5056516;28;20045;-87
2023/12/10 09:13:33;;;;;;;17.73;3.30;;;8.20;99.90;;;;;;5056142;28;20808;-87
2023/12/10 09:15:59;;;;;;;19.90;2.63;;;8.20;99.90;;;;;;5062934;28;20044;-87
2023/12/10 09:18:28;;;;;;;18.42;3.00;;;8.20;99.90;;;;;;5053225;28;20067;-86
2023/12/10 09:20:54;;;;;;;22.63;2.95;;;8.40;99.90;;;;;;5072758;28;20041;-85
2023/12/10 09:23:21;;;;;;;19.90;2.92;;;8.20;99.90;;;;;;5072311;28;20169;-87
2023/12/10 09:25:47;;;;;;;22.63;3.58;;;8.20;99.90;;;;;;5055269;28;20113;-86
2023/12/10 09:28:13;;;;;;;21.33;2.90;;;8.20;99.90;;;;;;5060284;28;20045;-86
2023/12/10 09:30:38;;;;;;;15.98;2.22;;;7.60;99.90;;;;;;5065346;28;20515;-87
2023/12/10 09:33:05;;;;;;;18.80;2.40;;;8.30;99.90;;;;;;5070558;28;20104;-87
2023/12/10 09:35:31;;;;;;;13.10;3.00;;;8.20;99.90;;;;;;5070591;28;20361;-89
2023/12/10 09:37:56;;;;;;;14.20;2.25;;;8.20;99.90;;;;;;5067376;28;20054;-79
2023/12/10 09:40:22;;;;;;;17.60;2.80;;;8.10;99.90;;;;;;5055515;28;20072;-78
2023/12/10 09:42:48;;;;;;;16.88;3.30;;;8.30;99.90;;;;;;5052235;28;20048;-80
2023/12/10 09:45:14;;;;;;;14.90;2.67;;;8.20;99.90;;;;;;5062638;28;20055;-78
2023/12/10 09:47:40;;;;;;;23.98;3.08;;;8.20;99.90;;;;;;5060717;28;20056;-80
2023/12/10 09:50:06;;;;;;;20.95;3.13;;;8.20;99.90;;;;;;5066100;28;20055;-78
2023/12/10 09:52:33;;;;;;;20.90;2.67;;;8.30;99.90;;;;;;5041160;28;20102;-80
2023/12/10 09:54:58;;;;;;;15.30;2.80;;;8.30;99.90;;;;;;5060821;28;20447;-82
2023/12/10 09:57:27;;;;;;;15.57;3.13;;;8.20;99.90;;;;;;5062918;28;20109;-79
2023/12/10 09:59:53;;;;;;;12.23;2.55;;;8.20;99.90;;;;;;5071639;28;20086;-80
2023/12/10 10:02:19;;;;;;;16.98;3.10;;;8.20;99.90;;;;;;5070958;28;20037;-80
2023/12/10 10:04:44;;;;;;;15.35;2.55;;;8.30;99.90;;;;;;5057644;28;20074;-79
2023/12/10 10:07:10;;;;;;;18.58;2.80;;;8.20;99.90;;;;;;5057156;28;20044;-80
2023/12/10 10:09:36;;;;;;;20.35;3.05;;;8.20;99.90;;;;;;5070316;28;20125;-81
2023/12/10 10:12:03;;;;;;;18.58;3.22;;;8.20;99.90;;;;;;5070110;28;20067;-80
2023/12/10 10:14:28;;;;;;;21.23;3.00;;;8.20;99.90;;;;;;5062213;28;20133;-81
2023/12/10 10:16:54;;;;;;;18.00;3.45;;;8.20;99.90;;;;;;5071095;28;20090;-81
2023/12/10 10:19:20;;;;;;;19.23;3.15;;;8.20;99.90;;;;;;5071440;28;20579;-80
2023/12/10 10:21:46;;;;;;;20.77;3.15;;;8.20;99.90;;;;;;5065372;28;20041;-82
2023/12/10 10:24:12;;;;;;;23.73;3.88;;;8.20;99.90;;;;;;5055868;28;20052;-80
2023/12/10 10:26:39;;;;;;;19.88;3.03;;;8.20;99.90;;;;;;5067854;28;20029;-80
2023/12/10 10:29:06;;;;;;;25.42;3.78;;;8.20;99.90;;;;;;5036876;28;20044;-80
2023/12/10 10:31:32;;;;;;;20.33;3.92;;;8.20;99.90;;;;;;5061539;28;20129;-80
2023/12/10 10:34:02;;;;;;;21.80;3.80;;;8.20;99.90;;;;;;5056042;28;20075;-81
2023/12/10 10:36:27;;;;;;;21.77;4.10;;;8.20;99.90;;;;;;5048657;28;20858;-78
2023/12/10 10:38:55;;;;;;;22.50;4.95;;;8.20;99.90;;;;;;5060797;28;20128;-80
2023/12/10 10:41:22;;;;;;;28.45;5.07;;;8.20;99.90;;;;;;5041145;28;20072;-80
2023/12/10 10:43:48;;;;;;;22.90;3.92;;;8.20;99.90;;;;;;5058321;28;20046;-81
2023/12/10 10:46:19;;;;;;;29.65;4.28;;;8.20;99.90;;;;;;5056024;28;20047;-80
2023/12/10 10:48:44;;;;;;;27.75;5.18;;;8.20;99.90;;;;;;5057648;28;20135;-81
2023/12/10 10:51:11;;;;;;;29.60;4.95;;;8.30;99.90;;;;;;5058534;28;20543;-81
2023/12/10 10:53:38;;;;;;;33.70;4.50;;;8.30;99.90;;;;;;5061063;28;20044;-81
2023/12/10 10:56:05;;;;;;;28.75;4.38;;;8.30;99.90;;;;;;5061135;28;20056;-82
2023/12/10 10:58:31;;;;;;;28.92;4.28;;;8.30;99.90;;;;;;5066277;28;20046;-82
2023/12/10 11:00:58;;;;;;;28.65;5.35;;;8.30;99.90;;;;;;5053034;28;20124;-82
2023/12/10 11:03:28;;;;;;;21.98;5.13;;;8.30;99.90;;;;;;5056341;28;20036;-80
2023/12/10 11:06:02;;;;;;;31.15;5.88;;;8.30;99.90;;;;;;5059184;28;20060;-81
2023/12/10 11:08:29;;;;;;;29.95;5.18;;;8.30;99.90;;;;;;5057919;28;20048;-81
2023/12/10 11:11:00;;;;;;;31.70;5.63;;;8.50;99.90;;;;;;5062718;28;20044;-81
2023/12/10 11:13:43;;;;;;;26.73;4.65;;;8.30;99.90;;;;;;5058494;28;20538;-81
2023/12/10 11:16:08;;;;;;;29.25;4.82;;;8.30;99.90;;;;;;5059548;28;20050;-82
2023/12/10 11:18:52;;;;;;;23.55;4.15;;;8.40;99.90;;;;;;5043861;28;20052;-81
2023/12/10 11:21:18;;;;;;;26.83;4.27;;;8.40;99.90;;;;;;5062019;28;20048;-81
2023/12/10 11:23:44;;;;;;;25.92;5.03;;;8.40;99.90;;;;;;5061833;28;20037;-81
2023/12/10 11:26:10;;;;;;;26.67;5.97;;;8.40;99.90;;;;;;5059312;28;20044;-82
2023/12/10 11:28:36;;;;;;;22.63;4.25;;;8.40;99.90;;;;;;5055916;28;20179;-82
2023/12/10 11:31:02;;;;;;;25.98;4.68;;;8.40;99.90;;;;;;5055082;28;20082;-80
2023/12/10 11:33:28;;;;;;;28.60;4.60;;;8.50;99.90;;;;;;5065695;28;20048;-81
2023/12/10 11:35:56;;;;;;;26.58;4.80;;;8.50;99.90;;;;;;5059912;28;20052;-81
2023/12/10 11:38:22;;;;;;;27.38;5.53;;;8.50;99.90;;;;;;5055295;28;20047;-80
2023/12/10 11:40:48;;;;;;;33.72;6.90;;;8.50;99.90;;;;;;5068129;28;20075;-80
2023/12/10 11:43:14;;;;;;;27.23;4.97;;;8.50;99.90;;;;;;5068270;28;20466;-81
2023/12/10 11:45:40;;;;;;;31.98;4.75;;;8.50;99.90;;;;;;5065765;28;20114;-81
2023/12/10 11:48:05;;;;;;;25.35;5.30;;;8.50;99.90;;;;;;5057382;28;20403;-81
2023/12/10 11:50:32;;;;;;;38.22;6.80;;;8.50;99.90;;;;;;5068752;28;20041;-80
2023/12/10 11:52:58;;;;;;;28.95;5.10;;;8.50;99.90;;;;;;5070112;28;20048;-82
2023/12/10 11:55:24;;;;;;;32.22;5.60;;;8.60;99.90;;;;;;5059530;28;20048;-81
2023/12/10 11:57:49;;;;;;;21.83;4.80;;;8.50;99.90;;;;;;5066626;28;20120;-82
2023/12/10 12:00:15;;;;;;;28.02;4.63;;;8.60;99.90;;;;;;5072461;28;20499;-81
2023/12/10 12:02:46;;;;;;;29.40;5.65;;;8.60;99.90;;;;;;5069891;28;20044;-79
2023/12/10 12:05:13;;;;;;;28.23;7.28;;;8.80;99.90;;;;;;5055497;28;20535;-78
2023/12/10 12:07:41;;;;;;;32.63;5.28;;;8.70;99.90;;;;;;5061840;28;20040;-80
2023/12/10 12:10:08;;;;;;;31.60;5.28;;;8.60;99.90;;;;;;5056222;28;20064;-83
2023/12/10 12:12:45;;;;;;;26.80;4.57;;;8.70;99.90;;;;;;5066156;28;20060;-80
2023/12/10 12:15:12;;;;;;;22.30;3.92;;;8.70;99.90;;;;;;5056682;28;20087;-83
2023/12/10 12:17:39;;;;;;;25.38;5.15;;;8.70;99.90;;;;;;5053919;28;20053;-82
2023/12/10 12:20:17;;;;;;;30.88;4.90;;;8.70;99.90;;;;;;5068794;28;20052;-79
2023/12/10 12:22:44;;;;;;;26.10;4.53;;;8.70;99.90;;;;;;5058591;28;20045;-80
2023/12/10 12:25:10;;;;;;;17.30;4.57;;;8.80;99.90;;;;;;5056419;28;20041;-78
2023/12/10 12:27:35;;;;;;;26.17;4.78;;;8.60;99.90;;;;;;5071433;28;20071;-80
2023/12/10 12:30:02;;;;;;;29.60;4.05;;;8.70;99.90;;;;;;5067030;28;20044;-79
2023/12/10 12:32:28;;;;;;;27.02;4.45;;;8.70;99.90;;;;;;5052066;28;20087;-79
2023/12/10 12:34:53;;;;;;;35.13;5.45;;;8.70;99.90;;;;;;5072343;28;20049;-81
2023/12/10 12:37:19;;;;;;;19.02;3.30;;;8.70;99.90;;;;;;5062004;28;20045;-80
2023/12/10 12:39:45;;;;;;;26.40;4.22;;;8.70;99.90;;;;;;5069094;28;20071;-80
2023/12/10 12:42:10;;;;;;;23.77;4.30;;;8.70;99.90;;;;;;5072460;28;20111;-81